Time;durP1;ratioP1;P1;durP2;ratioP2;P2;SDS_P1;SDS_P2;PMS_P1;PMS_P2;Temp;Humidity;BMP_temperature;BMP_pressure;BME280_temperature;BME280_humidity;BME280_pressure;Samples;Min_cycle;Max_cycle;Signal;HPM_P1;HPM_P2
2023/03/17 00:00:41;;;;;;;;;28.00;26.67;;;;;11.40;56.35;100561.13;2015817;28;3604408;-74
2023/03/17 00:01:53;;;;;;;;;25.00;20.50;;;;;11.40;56.36;100563.75;2001108;28;2839849;-74
2023/03/17 00:03:05;;;;;;;;;31.67;25.33;;;;;11.38;56.21;100557.69;1991296;28;3606527;-74
2023/03/17 00:04:18;;;;;;;;;27.00;25.00;;;;;11.35;56.39;100559.53;1994139;28;2857592;-74
2023/03/17 00:05:32;;;;;;;;;24.50;24.50;;;;;11.35;56.51;100558.69;1993210;28;2847171;-74
2023/03/17 00:06:42;;;;;;;;;30.50;28.50;;;;;11.33;56.33;100561.34;1991906;28;2855536;-74
2023/03/17 00:08:02;;;;;;;;;26.33;23.67;;;;;11.32;56.53;100564.03;2009390;28;3593961;-74
2023/03/17 00:09:15;;;;;;;;;26.50;24.00;;;;;11.32;56.83;100566.69;1993317;28;2838838;-74
2023/03/17 00:10:26;;;;;;;;;23.67;19.67;;;;;11.31;56.73;100570.25;1994946;28;2833690;-74
2023/03/17 00:11:37;;;;;;;;;23.00;21.00;;;;;11.29;56.76;100565.03;2025545;28;2838823;-74
2023/03/17 00:12:52;;;;;;;;;21.80;21.80;;;;;11.29;56.75;100569.41;2042000;27;3583593;-74
2023/03/17 00:14:03;;;;;;;;;23.50;21.00;;;;;11.27;56.75;100568.63;2017664;28;2850265;-75
2023/03/17 00:15:16;;;;;;;;;24.00;22.50;;;;;11.25;56.91;100574.81;1989031;28;2854818;-74
2023/03/17 00:16:28;;;;;;;;;22.00;21.50;;;;;11.26;56.75;100578.28;1994638;28;2839840;-74
2023/03/17 00:17:40;;;;;;;;;21.33;20.33;;;;;11.23;57.04;100576.66;2014974;28;3581478;-74
2023/03/17 00:18:52;;;;;;;;;26.00;23.50;;;;;11.24;56.83;100577.50;2017062;28;2846086;-74
2023/03/17 00:20:04;;;;;;;;;23.50;21.50;;;;;11.22;56.92;100566.19;2000525;28;2835690;-74
2023/03/17 00:21:24;;;;;;;;;25.33;22.33;;;;;11.21;56.98;100575.00;1992673;27;3585648;-74
2023/03/17 00:22:36;;;;;;;;;23.67;22.33;;;;;11.20;56.96;100576.78;2014946;28;3589819;-74
2023/03/17 00:23:50;;;;;;;;;26.20;26.20;;;;;11.19;56.97;100582.94;2014319;28;3584578;-74
2023/03/17 00:25:02;;;;;;;;;24.33;21.67;;;;;11.17;56.92;100589.16;2014137;28;3571070;-74
2023/03/17 00:26:14;;;;;;;;;24.60;24.00;;;;;11.17;56.89;100592.66;2035669;28;3592928;-74
2023/03/17 00:27:27;;;;;;;;;26.20;23.00;;;;;11.15;57.12;100583.97;2006300;28;3587703;-74
2023/03/17 00:28:37;;;;;;;;;22.50;20.00;;;;;11.14;57.26;100584.88;1994183;28;2846107;-74
2023/03/17 00:29:49;;;;;;;;;25.60;24.40;;;;;11.12;57.11;100584.09;2015418;28;3592232;-75
2023/03/17 00:31:12;;;;;;;;;23.80;23.60;;;;;11.12;56.94;100581.47;2013381;28;3592925;-74
2023/03/17 00:32:23;;;;;;;;;29.33;23.33;;;;;11.11;57.11;100579.75;1991679;28;3610644;-74
2023/03/17 00:33:36;;;;;;;;;28.20;23.20;;;;;11.09;57.09;100584.19;2013759;28;3589815;-74
2023/03/17 00:34:46;;;;;;;;;32.50;25.00;;;;;11.08;57.33;100583.34;1998520;28;2856990;-74
2023/03/17 00:35:58;;;;;;;;;27.60;26.20;;;;;11.07;57.28;100586.03;2012517;28;3602305;-75
2023/03/17 00:37:11;;;;;;;;;25.40;22.60;;;;;11.05;57.16;100594.00;2010252;28;3578321;-74
2023/03/17 00:38:23;;;;;;;;;26.00;26.00;;;;;11.02;57.22;100581.81;1994288;28;2858578;-74
2023/03/17 00:39:33;;;;;;;;;27.00;21.50;;;;;11.02;57.29;100581.81;1995023;28;2850245;-75
2023/03/17 00:40:46;;;;;;;;;21.40;21.40;;;;;11.01;57.06;100580.06;2014365;28;3577322;-74
2023/03/17 00:41:57;;;;;;;;;23.00;23.00;;;;;11.01;57.01;100576.63;2017722;28;2856511;-74
2023/03/17 00:43:09;;;;;;;;;23.60;22.20;;;;;11.01;57.39;100581.88;2014548;28;3578316;-74
2023/03/17 00:44:21;;;;;;;;;26.00;21.80;;;;;10.98;57.55;100577.59;2035939;28;3589788;-74
2023/03/17 00:45:33;;;;;;;;;26.40;23.80;;;;;10.98;57.62;100584.63;2043274;28;3584587;-74
2023/03/17 00:46:45;;;;;;;;;25.60;24.20;;;;;10.96;57.58;100584.69;2009789;28;3590861;-75
2023/03/17 00:47:57;;;;;;;;;23.67;22.00;;;;;10.96;57.54;100584.69;2028998;28;3587738;-74
2023/03/17 00:49:19;;;;;;;;;26.00;24.00;;;;;10.95;57.63;100582.09;2016510;28;2841916;-74
2023/03/17 00:50:30;;;;;;;;;26.00;23.67;;;;;10.95;57.73;100587.34;1991400;28;3587791;-74
2023/03/17 00:51:43;;;;;;;;;21.60;21.40;;;;;10.93;57.78;100584.78;2032203;28;3575212;-74
2023/03/17 00:52:56;;;;;;;;;23.00;22.00;;;;;10.93;57.52;100584.78;2013203;28;3583604;-74
2023/03/17 00:54:09;;;;;;;;;26.00;24.00;;;;;10.91;57.90;100574.31;2016567;28;2847136;-74
2023/03/17 00:55:20;;;;;;;;;26.00;23.00;;;;;10.90;57.92;100577.88;1992746;28;2848552;-74
2023/03/17 00:56:31;;;;;;;;;22.67;20.67;;;;;10.91;57.78;100582.19;1983038;28;3577388;-74
2023/03/17 00:57:43;;;;;;;;;27.67;24.33;;;;;10.90;58.03;100577.00;2029695;28;3587750;-74
2023/03/17 00:58:55;;;;;;;;;22.40;18.40;;;;;10.90;57.94;100584.88;2039814;27;3590861;-74
2023/03/17 01:00:28;;;;;;;;;25.00;22.67;;;;;10.90;57.93;100585.75;2000396;28;3583620;-74
2023/03/17 01:01:40;;;;;;;;;18.67;16.00;;;;;10.88;57.92;100584.97;2007731;28;3571050;-74
2023/03/17 01:02:53;;;;;;;;;27.00;23.00;;;;;10.87;57.88;100583.22;2013857;28;2847140;-74
2023/03/17 01:04:04;;;;;;;;;26.33;21.67;;;;;10.87;57.85;100585.84;1991584;28;3580548;-74
2023/03/17 01:05:17;;;;;;;;;20.33;19.00;;;;;10.87;58.04;100577.09;2036439;28;3581505;-74
2023/03/17 01:06:28;;;;;;;;;20.00;20.00;;;;;10.87;58.01;100577.09;2019497;28;2841465;-74
2023/03/17 01:07:41;;;;;;;;;28.00;23.60;;;;;10.86;58.08;100578.03;2041934;27;3585107;-74
2023/03/17 01:08:54;;;;;;;;;28.00;22.33;;;;;10.85;58.17;100577.19;2008227;28;3587743;-74
2023/03/17 01:10:15;;;;;;;;;28.50;23.50;;;;;10.86;58.21;100580.66;2009079;28;2860693;-74
2023/03/17 01:11:26;;;;;;;;;22.33;19.67;;;;;10.85;58.22;100586.81;1985130;28;3558581;-74
2023/03/17 01:12:39;;;;;;;;;20.20;17.40;;;;;10.85;58.53;100586.81;2029418;28;3571037;-74
2023/03/17 01:13:49;;;;;;;;;27.00;21.50;;;;;10.84;58.52;100583.34;2019650;28;2853357;-74
2023/03/17 01:15:01;;;;;;;;;23.40;19.80;;;;;10.84;58.47;100579.88;2012547;28;3576234;-74
2023/03/17 01:16:14;;;;;;;;;22.00;20.00;;;;;10.84;58.48;100577.25;2026100;28;3573511;-74
2023/03/17 01:17:25;;;;;;;;;23.67;21.33;;;;;10.83;58.39;100583.41;2015678;28;3570056;-74
2023/03/17 01:18:38;;;;;;;;;21.20;20.80;;;;;10.84;58.51;100582.50;2037725;28;3580408;-74
2023/03/17 01:19:49;;;;;;;;;21.50;19.00;;;;;10.82;58.50;100585.16;2018771;28;2840449;-74
2023/03/17 01:21:01;;;;;;;;;22.67;21.00;;;;;10.84;58.50;100582.50;2007618;28;3578360;-74
2023/03/17 01:22:13;;;;;;;;;22.00;20.00;;;;;10.84;58.51;100585.13;2017893;28;3585684;-74
2023/03/17 01:23:24;;;;;;;;;14.50;14.50;;;;;10.84;58.24;100587.75;2008032;28;2810691;-74
2023/03/17 01:24:36;;;;;;;;;21.67;19.67;;;;;10.83;58.34;100589.53;1989798;28;3578348;-74
2023/03/17 01:25:48;;;;;;;;;19.33;17.00;;;;;10.84;58.63;100591.22;2029576;28;2832641;-74
2023/03/17 01:26:59;;;;;;;;;22.00;19.50;;;;;10.84;58.51;100585.13;2016010;28;2841923;-74
2023/03/17 01:28:17;;;;;;;;;22.67;20.33;;;;;10.83;58.63;100588.66;2030790;28;3564824;-74
2023/03/17 01:29:28;;;;;;;;;20.67;18.67;;;;;10.85;58.42;100594.72;2015649;28;3574175;-74
2023/03/17 01:30:41;;;;;;;;;21.67;18.67;;;;;10.84;58.30;100588.59;2032304;28;3576266;-74
2023/03/17 01:31:51;;;;;;;;;20.50;17.50;;;;;10.86;58.54;100593.81;2015758;28;2831503;-74
2023/03/17 01:33:07;;;;;;;;;19.67;19.67;;;;;10.86;58.43;100586.78;2009784;28;3569348;-74
2023/03/17 01:34:18;;;;;;;;;18.67;18.33;;;;;10.85;58.18;100587.69;2014136;28;3572071;-74
2023/03/17 01:35:30;;;;;;;;;25.00;19.00;;;;;10.86;58.46;100578.91;2028045;28;3588220;-74
2023/03/17 01:36:42;;;;;;;;;24.67;20.67;;;;;10.86;58.39;100580.66;2017773;28;3578368;-74
2023/03/17 01:37:56;;;;;;;;;23.00;18.33;;;;;10.87;58.42;100582.38;2030447;28;3563814;-74
2023/03/17 01:39:07;;;;;;;;;19.33;18.33;;;;;10.87;58.46;100579.72;2015484;28;3574186;-74
2023/03/17 01:40:23;;;;;;;;;21.67;18.00;;;;;10.87;58.60;100587.63;2031217;28;3573156;-74
2023/03/17 01:41:38;;;;;;;;;19.50;16.33;;;;;10.87;58.59;100588.50;2044271;28;1841955;-74
2023/03/17 01:43:09;;;;;;;;;21.67;18.00;;;;;10.88;58.46;100586.72;1991953;28;3574183;-74
2023/03/17 01:44:22;;;;;;;;;21.67;19.33;;;;;10.88;58.36;100586.72;2014983;28;3572095;-74
2023/03/17 01:46:11;;;;;;;;;23.00;22.00;;;;;10.87;58.32;100579.72;2015837;28;3580460;-74
2023/03/17 01:47:25;;;;;;;;;19.67;19.33;;;;;10.88;58.09;100568.31;2007452;28;3578405;-74
2023/03/17 01:48:38;;;;;;;;;24.00;20.00;;;;;10.87;58.44;100575.34;2015033;28;3587775;-74
2023/03/17 01:49:49;;;;;;;;;18.33;18.33;;;;;10.87;58.52;100572.72;1990208;28;3573149;-75
2023/03/17 01:51:01;;;;;;;;;20.00;19.67;;;;;10.88;58.09;100570.94;2028083;28;2832638;-74
2023/03/17 01:52:17;;;;;;;;;21.33;18.33;;;;;10.86;58.56;100560.50;2014937;28;3572174;-74
2023/03/17 01:53:28;;;;;;;;;17.00;16.33;;;;;10.88;58.60;100563.06;2015841;28;3577327;-74
2023/03/17 01:54:55;;;;;;;;;25.67;21.00;;;;;10.89;58.53;100570.03;2019038;28;3593988;-74
2023/03/17 01:56:07;;;;;;;;;24.00;19.00;;;;;10.87;58.67;100564.81;2015273;28;3572130;-74
2023/03/17 01:57:24;;;;;;;;;22.00;20.00;;;;;10.88;58.45;100560.44;2033321;27;3559591;-74
2023/03/17 01:58:35;;;;;;;;;20.33;19.00;;;;;10.88;58.31;100563.06;2027775;27;3590883;-74
2023/03/17 02:00:04;;;;;;;;;20.33;19.33;;;;;10.88;58.46;100560.44;2031781;28;2834726;-74
2023/03/17 02:01:16;;;;;;;;;21.00;21.00;;;;;10.89;58.42;100564.78;2015613;28;3570055;-74
2023/03/17 02:02:33;;;;;;;;;22.33;21.00;;;;;10.88;58.50;100557.81;2014597;28;3566898;-74
2023/03/17 02:03:44;;;;;;;;;20.50;19.00;;;;;10.89;58.44;100562.16;2016188;28;2838833;-74
2023/03/17 02:04:56;;;;;;;;;19.50;19.50;;;;;10.88;58.52;100557.81;2017015;28;2839869;-74
2023/03/17 02:06:08;;;;;;;;;17.00;17.00;;;;;10.90;58.42;100563.84;2015491;28;3562789;-75
2023/03/17 02:07:21;;;;;;;;;26.00;20.00;;;;;10.90;58.50;100561.22;2008946;28;2842962;-74
2023/03/17 02:08:33;;;;;;;;;20.00;19.00;;;;;10.91;58.44;100555.06;1986732;28;3579403;-74
2023/03/17 02:09:46;;;;;;;;;21.67;18.67;;;;;10.90;58.41;100558.59;2023787;28;3577339;-74
2023/03/17 02:10:57;;;;;;;;;19.50;17.00;;;;;10.90;58.35;100563.84;2015745;28;2833617;-74
2023/03/17 02:12:09;;;;;;;;;20.40;18.60;;;;;10.91;58.45;100557.69;2007804;27;3593993;-74
2023/03/17 02:13:20;;;;;;;;;19.33;17.33;;;;;10.91;58.39;100555.06;2014903;28;3570005;-74
2023/03/17 02:14:33;;;;;;;;;21.60;17.80;;;;;10.92;58.34;100556.75;2026323;28;3573492;-74
2023/03/17 02:15:47;;;;;;;;;23.00;20.33;;;;;10.92;58.34;100562.03;2013018;28;3583560;-74
2023/03/17 02:16:58;;;;;;;;;20.33;18.00;;;;;10.92;58.53;100551.50;2014319;28;3564883;-74
2023/03/17 02:18:11;;;;;;;;;20.00;19.00;;;;;10.93;58.47;100558.50;2029864;28;3592340;-74
2023/03/17 02:19:23;;;;;;;;;19.33;17.00;;;;;10.93;58.53;100562.88;2012027;28;3563906;-74
2023/03/17 02:20:34;;;;;;;;;21.33;19.00;;;;;10.94;58.57;100569.88;2027280;28;3577343;-74
2023/03/17 02:21:50;;;;;;;;;19.33;18.33;;;;;10.94;58.48;100562.81;2038265;28;3574225;-74
2023/03/17 02:23:03;;;;;;;;;20.00;18.00;;;;;10.95;58.39;100572.44;2015093;28;3573148;-74
2023/03/17 02:24:21;;;;;;;;;20.67;18.00;;;;;10.95;58.51;100564.53;2014264;28;3563777;-74
2023/03/17 02:25:35;;;;;;;;;19.00;16.67;;;;;10.96;58.30;100566.28;2014922;28;3558574;-74
2023/03/17 02:26:48;;;;;;;;;20.00;19.00;;;;;10.96;58.30;100561.00;2015149;28;2838210;-74
2023/03/17 02:28:07;;;;;;;;;17.00;16.00;;;;;10.97;58.56;100559.22;2014757;28;2832085;-74
2023/03/17 02:29:21;;;;;;;;;15.83;15.67;;;;;10.97;58.37;100559.22;2044700;28;1833721;-74
2023/03/17 02:30:34;;;;;;;;;18.00;18.00;;;;;10.97;58.19;100554.81;1993548;28;2829444;-74
2023/03/17 02:31:49;;;;;;;;;22.00;21.86;;;;;10.97;58.42;100554.81;2043312;28;1833235;-74
2023/03/17 02:33:00;;;;;;;;;17.00;17.00;;;;;10.97;58.35;100554.81;2010017;28;2829428;-74
2023/03/17 02:34:11;;;;;;;;;18.40;17.40;;;;;10.98;58.28;100556.56;2021093;28;3568971;-74
2023/03/17 02:35:23;;;;;;;;;22.00;21.00;;;;;10.99;58.53;100552.13;2025784;28;3582534;-74
2023/03/17 02:36:36;;;;;;;;;19.33;19.33;;;;;10.99;58.52;100544.22;2031787;28;3572131;-74
2023/03/17 02:37:49;;;;;;;;;19.00;17.00;;;;;10.99;58.40;100547.72;2044938;28;1832687;-74
2023/03/17 02:39:01;;;;;;;;;17.33;16.67;;;;;11.00;58.66;100545.97;1992327;28;3556497;-74
2023/03/17 02:40:14;;;;;;;;;18.00;17.00;;;;;10.99;58.44;100550.34;2035578;28;2831511;-74
2023/03/17 02:41:26;;;;;;;;;23.67;19.33;;;;;10.99;58.65;100558.25;1997933;28;3575252;-74
2023/03/17 02:42:38;;;;;;;;;19.00;17.33;;;;;10.99;58.48;100558.25;2025359;28;3564823;-74
2023/03/17 02:43:48;;;;;;;;;19.00;17.00;;;;;10.99;58.40;100554.75;2016628;28;2825265;-74
2023/03/17 02:45:01;;;;;;;;;20.00;19.00;;;;;11.00;58.72;100553.84;2026100;28;3575227;-74
2023/03/17 02:46:12;;;;;;;;;16.00;16.00;;;;;10.99;58.77;100552.97;2015945;28;2821501;-74
2023/03/17 02:47:24;;;;;;;;;19.00;19.00;;;;;11.00;58.54;100554.72;2014174;28;3571076;-74
2023/03/17 02:48:36;;;;;;;;;18.00;15.33;;;;;10.99;58.43;100552.97;2015461;28;2825262;-74
2023/03/17 02:49:50;;;;;;;;;19.80;15.40;;;;;11.01;58.53;100558.22;2034318;28;2821055;-74
2023/03/17 02:51:02;;;;;;;;;19.67;17.00;;;;;11.01;58.57;100556.41;1991015;28;2833580;-74
2023/03/17 02:52:15;;;;;;;;;17.67;15.50;;;;;11.02;58.34;100554.66;2054317;27;1829983;-74
2023/03/17 02:53:28;;;;;;;;;16.83;15.67;;;;;11.01;58.26;100550.31;2024325;28;1841960;-74
2023/03/17 02:54:40;;;;;;;;;17.67;15.00;;;;;11.02;58.60;100547.63;1993658;28;3550225;-74
2023/03/17 02:55:52;;;;;;;;;17.00;16.00;;;;;11.03;58.20;100546.72;2033349;28;3558554;-74
2023/03/17 02:57:07;;;;;;;;;18.33;15.33;;;;;11.03;58.29;100541.47;2050682;28;2825582;-74
2023/03/17 02:58:17;;;;;;;;;18.50;14.00;;;;;11.03;58.01;100536.19;1993706;28;2808552;-74
2023/03/17 02:59:28;;;;;;;;;12.00;12.00;;;;;11.03;58.41;100533.56;2011087;28;2790202;-74
2023/03/17 03:00:40;;;;;;;;;16.60;16.00;;;;;11.06;58.16;100529.09;2029373;28;3565865;-74
2023/03/17 03:01:52;;;;;;;;;17.50;16.00;;;;;11.06;58.57;100531.72;2032546;28;2824227;-74
2023/03/17 03:03:02;;;;;;;;;15.00;13.00;;;;;11.07;58.03;100522.91;1995412;28;2801268;-74
2023/03/17 03:04:14;;;;;;;;;18.33;16.33;;;;;11.07;58.43;100528.16;2008004;28;2827414;-74
2023/03/17 03:05:25;;;;;;;;;16.67;16.33;;;;;11.08;57.99;100528.13;2016052;28;3567293;-74
2023/03/17 03:06:38;;;;;;;;;18.20;16.00;;;;;11.08;58.16;100522.00;2043293;28;1835707;-74
2023/03/17 03:07:51;;;;;;;;;15.50;13.50;;;;;11.10;58.08;100528.06;2024666;28;1831595;-74
2023/03/17 03:09:05;;;;;;;;;15.33;11.17;;;;;11.10;58.15;100534.19;2024243;28;1827479;-74
2023/03/17 03:10:17;;;;;;;;;17.00;15.50;;;;;11.11;57.98;100535.88;1993279;28;2823214;-74
2023/03/17 03:11:30;;;;;;;;;16.67;14.83;;;;;11.12;58.35;100532.34;2023106;28;1827373;-74
2023/03/17 03:12:44;;;;;;;;;16.83;15.83;;;;;11.12;58.25;100534.09;2015673;28;1831588;-74
2023/03/17 03:13:55;;;;;;;;;17.00;15.50;;;;;11.13;58.30;100527.94;1993278;28;2820077;-74
2023/03/17 03:15:08;;;;;;;;;16.67;16.67;;;;;11.14;58.05;100524.38;2005113;28;3564783;-74
2023/03/17 03:16:19;;;;;;;;;11.67;11.67;;;;;11.14;58.29;100521.75;2017326;28;2808555;-74
2023/03/17 03:17:30;;;;;;;;;12.00;10.33;;;;;11.13;58.10;100513.03;2015931;28;3518966;-74
2023/03/17 03:18:42;;;;;;;;;15.67;15.00;;;;;11.14;58.31;100509.47;2018806;28;2817982;-74
2023/03/17 03:19:54;;;;;;;;;16.20;12.80;;;;;11.13;58.12;100505.13;2034589;28;2788782;-74
2023/03/17 03:21:05;;;;;;;;;17.00;13.00;;;;;11.14;58.17;100505.97;2010010;28;2809650;-74
2023/03/17 03:22:17;;;;;;;;;16.00;15.33;;;;;11.14;57.91;100514.72;2004219;28;2813890;-74
2023/03/17 03:23:29;;;;;;;;;19.67;18.33;;;;;11.16;58.04;100519.06;2023463;27;3576282;-74
2023/03/17 03:24:40;;;;;;;;;16.00;12.50;;;;;11.16;57.75;100522.53;2028231;28;2795475;-74
2023/03/17 03:25:51;;;;;;;;;16.00;15.00;;;;;11.17;58.31;100519.00;2008008;28;2807562;-74
2023/03/17 03:27:03;;;;;;;;;16.00;16.00;;;;;11.18;58.17;100520.72;2010462;28;3560613;-74
2023/03/17 03:28:14;;;;;;;;;18.00;16.67;;;;;11.18;58.13;100528.63;2038345;27;3564819;-74
2023/03/17 03:29:26;;;;;;;;;15.67;13.00;;;;;11.19;58.07;100527.69;2020962;28;3538791;-74
2023/03/17 03:30:38;;;;;;;;;14.40;14.20;;;;;11.19;58.43;100529.47;2044929;28;1831601;-74
2023/03/17 03:31:50;;;;;;;;;17.33;14.33;;;;;11.19;58.30;100527.69;1996900;28;3541887;-74
2023/03/17 03:33:02;;;;;;;;;18.33;16.33;;;;;11.20;58.30;100529.41;2028750;27;2828491;-74
2023/03/17 03:34:15;;;;;;;;;15.17;14.83;;;;;11.20;58.07;100529.41;2046920;28;1824275;-74
2023/03/17 03:35:28;;;;;;;;;19.00;15.00;;;;;11.21;58.43;100527.66;1992324;28;2814862;-74
2023/03/17 03:36:40;;;;;;;;;17.67;17.00;;;;;11.21;58.08;100528.47;2008804;28;3566886;-74
2023/03/17 03:37:51;;;;;;;;;17.67;17.00;;;;;11.20;58.35;100526.78;2019090;28;2830518;-74
2023/03/17 03:39:02;;;;;;;;;21.33;18.00;;;;;11.20;58.43;100529.41;2015498;28;3577347;-74
2023/03/17 03:40:15;;;;;;;;;16.67;16.17;;;;;11.21;58.51;100536.38;2049176;28;2825281;-74
2023/03/17 03:41:27;;;;;;;;;16.80;15.60;;;;;11.21;58.40;100541.63;2020007;28;1837842;-74
2023/03/17 03:42:39;;;;;;;;;16.33;16.00;;;;;11.20;58.46;100537.31;1992019;28;3560638;-74
2023/03/17 03:43:51;;;;;;;;;19.33;17.00;;;;;11.22;58.28;100542.50;2033024;28;3575228;-74
2023/03/17 03:45:02;;;;;;;;;18.00;15.50;;;;;11.21;58.06;100536.38;2031468;28;2825289;-74
2023/03/17 03:46:14;;;;;;;;;17.50;16.00;;;;;11.21;58.42;100546.91;2007090;28;2824180;-74
2023/03/17 03:47:25;;;;;;;;;19.33;15.33;;;;;11.21;58.29;100544.25;1995800;28;2823148;-75
2023/03/17 03:48:38;;;;;;;;;17.40;16.80;;;;;11.21;58.46;100546.91;2034014;28;2837757;-74
2023/03/17 03:49:49;;;;;;;;;16.00;14.00;;;;;11.21;58.25;100549.53;2009943;28;2800263;-74
2023/03/17 03:51:02;;;;;;;;;19.00;15.67;;;;;11.22;58.17;100538.09;2025998;27;3557469;-74
2023/03/17 03:52:13;;;;;;;;;16.67;16.67;;;;;11.22;58.18;100537.25;2020457;28;3561702;-74
2023/03/17 03:53:25;;;;;;;;;20.50;16.50;;;;;11.21;58.19;100544.25;2030532;28;2832603;-74
2023/03/17 03:54:36;;;;;;;;;16.00;14.00;;;;;11.22;58.40;100539.88;1992308;28;2815903;-74
2023/03/17 03:55:47;;;;;;;;;19.60;18.60;;;;;11.21;58.31;100546.91;2036102;28;3573168;-74
2023/03/17 03:56:59;;;;;;;;;15.40;15.20;;;;;11.22;58.33;100543.38;2044340;28;1831545;-74
2023/03/17 03:58:11;;;;;;;;;16.33;16.33;;;;;11.21;58.52;100541.63;2015817;28;3549175;-74
2023/03/17 03:59:22;;;;;;;;;14.50;13.00;;;;;11.22;58.31;100547.75;2029813;28;2801682;-74
2023/03/17 04:00:33;;;;;;;;;14.50;13.50;;;;;11.22;58.11;100538.09;2026275;27;2805427;-74
2023/03/17 04:01:46;;;;;;;;;21.50;17.67;;;;;11.22;58.32;100540.72;2061490;27;2837790;-74
2023/03/17 04:02:57;;;;;;;;;17.00;15.00;;;;;11.21;58.23;100536.38;2016533;27;2813819;-74
2023/03/17 04:04:09;;;;;;;;;18.60;16.60;;;;;11.23;58.22;100536.34;2024514;27;1831539;-74
2023/03/17 04:05:21;;;;;;;;;18.67;16.00;;;;;11.23;58.18;100541.59;2015211;28;2822097;-74
2023/03/17 04:06:32;;;;;;;;;17.33;15.67;;;;;11.24;58.06;100548.56;2014399;28;3554902;-74
2023/03/17 04:07:44;;;;;;;;;12.00;12.00;;;;;11.23;58.38;100552.97;2030367;28;2803404;-74
2023/03/17 04:08:55;;;;;;;;;17.00;14.50;;;;;11.23;58.20;100541.59;2015535;28;2816956;-74
2023/03/17 04:10:07;;;;;;;;;13.00;12.00;;;;;11.23;58.38;100547.72;2010228;28;2803363;-74
2023/03/17 04:11:18;;;;;;;;;13.00;12.50;;;;;11.23;58.33;100549.50;2013612;28;2808631;-74
2023/03/17 04:12:30;;;;;;;;;16.60;16.00;;;;;11.23;58.63;100547.72;2017515;28;1834064;-74
2023/03/17 04:13:41;;;;;;;;;13.33;12.67;;;;;11.24;58.49;100545.91;2023382;27;2803357;-74
2023/03/17 04:14:51;;;;;;;;;17.50;15.00;;;;;11.24;58.38;100541.53;2016243;27;2810656;-74
2023/03/17 04:16:03;;;;;;;;;17.50;13.50;;;;;11.23;58.45;100538.97;2001361;28;2812754;-74
2023/03/17 04:17:16;;;;;;;;;13.67;13.33;;;;;11.23;58.28;100544.22;2042758;28;1826391;-74
2023/03/17 04:18:27;;;;;;;;;14.00;14.00;;;;;11.23;58.25;100547.72;1993394;28;2806540;-74
2023/03/17 04:19:38;;;;;;;;;16.00;14.50;;;;;11.23;58.44;100541.59;2031055;28;2810710;-74
2023/03/17 04:20:49;;;;;;;;;16.00;16.00;;;;;11.23;58.36;100547.72;2002795;28;2825230;-74
2023/03/17 04:22:00;;;;;;;;;17.50;15.00;;;;;11.23;58.42;100547.72;2008955;28;2816929;-74
2023/03/17 04:23:13;;;;;;;;;13.67;12.83;;;;;11.23;58.27;100547.72;2050658;28;2799170;-74
2023/03/17 04:24:26;;;;;;;;;18.50;15.50;;;;;11.22;58.54;100548.63;2007689;28;2808588;-74
2023/03/17 04:25:36;;;;;;;;;18.00;16.00;;;;;11.23;58.60;100541.59;1992522;28;2815880;-74
2023/03/17 04:26:48;;;;;;;;;15.00;15.00;;;;;11.24;58.43;100544.16;2009311;28;2812793;-74
2023/03/17 04:27:59;;;;;;;;;17.33;16.00;;;;;11.24;58.40;100540.66;2007487;28;3572103;-74
2023/03/17 04:29:14;;;;;;;;;16.00;12.50;;;;;11.23;58.11;100541.59;2034046;27;2797138;-74
2023/03/17 04:30:27;;;;;;;;;13.17;13.17;;;;;11.24;58.11;100545.91;2045608;28;1828439;-74
2023/03/17 04:31:41;;;;;;;;;16.67;14.00;;;;;11.24;58.36;100541.53;2024388;28;1827403;-74
2023/03/17 04:32:51;;;;;;;;;15.50;13.50;;;;;11.24;58.31;100538.03;1994955;28;2806501;-74
2023/03/17 04:34:02;;;;;;;;;16.00;15.00;;;;;11.24;58.47;100531.00;2026010;27;2813768;-74
2023/03/17 04:35:17;;;;;;;;;15.00;14.00;;;;;11.25;58.55;100531.88;2035624;27;1835765;-74
2023/03/17 04:36:27;;;;;;;;;12.50;12.50;;;;;11.25;58.27;100529.25;1998666;27;2791926;-74
2023/03/17 04:37:39;;;;;;;;;15.60;13.80;;;;;11.24;58.54;100530.13;2046129;28;1821142;-74
2023/03/17 04:38:53;;;;;;;;;16.33;14.00;;;;;11.25;58.27;100524.84;2046189;28;1828435;-74
2023/03/17 04:40:08;;;;;;;;;12.50;11.00;;;;;11.25;58.41;100526.59;1987907;28;2788814;-74
2023/03/17 04:41:22;;;;;;;;;18.17;12.83;;;;;11.26;58.33;100530.94;2054513;28;1825360;-74
2023/03/17 04:42:36;;;;;;;;;13.17;12.00;;;;;11.25;58.43;100532.72;2029280;28;1828434;-74
2023/03/17 04:43:48;;;;;;;;;15.60;13.00;;;;;11.27;58.61;100523.91;2012143;28;2799214;-74
2023/03/17 04:44:59;;;;;;;;;15.00;13.33;;;;;11.25;58.73;100537.13;2023635;28;1830497;-74
2023/03/17 04:46:10;;;;;;;;;13.50;12.00;;;;;11.26;58.56;100533.56;1991789;28;2783584;-74
2023/03/17 04:47:21;;;;;;;;;14.00;11.00;;;;;11.25;58.29;100540.63;2007051;28;2806477;-75
2023/03/17 04:48:32;;;;;;;;;15.00;13.00;;;;;11.27;58.63;100537.06;2026375;28;2808599;-74
2023/03/17 04:49:43;;;;;;;;;12.00;12.00;;;;;11.27;58.65;100544.94;1997835;28;2788283;-74
2023/03/17 04:50:54;;;;;;;;;15.25;14.00;;;;;11.27;58.25;100544.94;2044014;28;1827444;-74
2023/03/17 04:52:05;;;;;;;;;14.00;13.00;;;;;11.27;58.35;100537.06;1993767;28;2762752;-74
2023/03/17 04:53:16;;;;;;;;;13.00;13.00;;;;;11.27;58.57;100540.56;1989378;28;2786694;-74
2023/03/17 04:54:27;;;;;;;;;14.50;12.50;;;;;11.27;58.33;100537.91;1992914;28;2793035;-74
2023/03/17 04:55:38;;;;;;;;;13.00;12.00;;;;;11.27;58.46;100540.56;2010953;28;2787747;-74
2023/03/17 04:56:49;;;;;;;;;14.33;11.67;;;;;11.27;58.10;100539.69;2047725;28;1842444;-74
2023/03/17 04:58:00;;;;;;;;;13.00;12.00;;;;;11.27;58.39;100540.56;1993703;28;2789842;-74
2023/03/17 04:59:12;;;;;;;;;15.60;12.20;;;;;11.29;58.41;100535.22;2015279;28;2785680;-74
2023/03/17 05:00:24;;;;;;;;;16.00;14.33;;;;;11.28;58.18;100536.16;2021035;28;1850367;-74
2023/03/17 05:01:35;;;;;;;;;12.00;8.75;;;;;11.28;58.54;100542.28;2006260;28;1852455;-74
2023/03/17 05:02:46;;;;;;;;;15.00;11.50;;;;;11.29;58.34;100541.34;2014534;28;2800246;-74
2023/03/17 05:03:57;;;;;;;;;14.50;12.50;;;;;11.30;58.51;100542.22;2008546;28;2806536;-74
2023/03/17 05:05:08;;;;;;;;;13.00;13.00;;;;;11.29;58.30;100537.84;2006288;28;3519999;-74
2023/03/17 05:06:19;;;;;;;;;12.00;10.00;;;;;11.29;58.26;100546.59;2013979;28;2789874;-74
2023/03/17 05:07:30;;;;;;;;;12.00;11.50;;;;;11.30;58.42;100537.81;2010441;28;2789799;-74
2023/03/17 05:08:43;;;;;;;;;16.00;13.00;;;;;11.29;58.09;100543.97;2018020;28;2808663;-74
2023/03/17 05:09:54;;;;;;;;;15.00;13.50;;;;;11.30;58.32;100544.84;2031251;27;2799217;-74
2023/03/17 05:11:05;;;;;;;;;15.00;12.50;;;;;11.31;58.29;100546.56;2015221;27;2806496;-74
2023/03/17 05:12:17;;;;;;;;;14.20;12.20;;;;;11.31;58.32;100547.41;2035820;27;1832632;-74
2023/03/17 05:13:27;;;;;;;;;13.33;11.33;;;;;11.31;58.29;100549.19;2021209;27;3511800;-74
2023/03/17 05:14:39;;;;;;;;;11.50;10.00;;;;;11.31;58.40;100541.31;2045668;28;1843572;-74
2023/03/17 05:15:52;;;;;;;;;12.00;9.67;;;;;11.31;58.69;100547.41;2015761;28;3501357;-74
2023/03/17 05:17:03;;;;;;;;;12.50;12.50;;;;;11.31;58.82;100544.75;2007686;28;2789828;-74
2023/03/17 05:18:15;;;;;;;;;13.00;12.50;;;;;11.32;58.63;100543.00;2030366;28;2794008;-74
2023/03/17 05:19:25;;;;;;;;;13.00;11.00;;;;;11.32;58.62;100543.00;1992692;28;2795031;-74
2023/03/17 05:20:36;;;;;;;;;11.50;11.00;;;;;11.32;58.59;100540.38;2025152;28;2797269;-74
2023/03/17 05:21:47;;;;;;;;;13.00;12.00;;;;;11.32;58.41;100543.00;2015836;27;2796076;-74
2023/03/17 05:22:58;;;;;;;;;12.00;12.00;;;;;11.32;58.58;100548.25;2004643;27;2790944;-74